Time;durP1;ratioP1;P1;durP2;ratioP2;P2;SDS_P1;SDS_P2;PMS_P1;PMS_P2;Temp;Humidity;BMP_temperature;BMP_pressure;BME280_temperature;BME280_humidity;BME280_pressure;Samples;Min_cycle;Max_cycle;Signal;HPM_P1;HPM_P2
2022/09/19 00:01:48;;;;;;;1.10;0.40;;;8.10;99.90;;;;;;5072161;28;20423;-63
2022/09/19 00:04:17;;;;;;;1.10;0.50;;;8.10;99.90;;;;;;5054965;28;20467;-62
2022/09/19 00:06:46;;;;;;;1.20;0.50;;;8.00;99.90;;;;;;5072676;28;20427;-63
2022/09/19 00:09:15;;;;;;;1.10;0.40;;;8.00;99.90;;;;;;5073032;28;20510;-63
2022/09/19 00:11:43;;;;;;;1.10;0.50;;;7.90;99.90;;;;;;5072320;28;20411;-62
2022/09/19 00:14:13;;;;;;;1.20;0.50;;;7.90;99.90;;;;;;5077483;28;20934;-63
2022/09/19 00:16:41;;;;;;;1.10;0.40;;;7.90;99.90;;;;;;5073983;28;20908;-63
2022/09/19 00:19:10;;;;;;;1.40;0.60;;;7.90;99.90;;;;;;5069013;28;20826;-63
2022/09/19 00:21:39;;;;;;;1.37;0.57;;;7.90;99.90;;;;;;5072561;28;20962;-63
2022/09/19 00:26:50;;;;;;;1.10;0.50;;;7.90;99.90;;;;;;5065268;28;20415;-63
2022/09/19 00:29:17;;;;;;;1.10;0.40;;;7.90;99.90;;;;;;5066056;28;20420;-63
2022/09/19 00:31:44;;;;;;;1.17;0.50;;;7.90;99.90;;;;;;5052235;28;20177;-63
2022/09/19 00:34:11;;;;;;;1.10;0.40;;;7.90;99.90;;;;;;5052353;28;20506;-63
2022/09/19 00:36:38;;;;;;;1.60;0.80;;;7.80;99.90;;;;;;5052273;28;20417;-63
2022/09/19 00:39:05;;;;;;;1.10;0.40;;;7.80;99.90;;;;;;5065668;28;20958;-63
2022/09/19 00:41:31;;;;;;;1.40;0.40;;;7.90;99.90;;;;;;5052189;28;20420;-63
2022/09/19 00:43:58;;;;;;;1.20;0.50;;;7.90;99.90;;;;;;5070349;28;20467;-63
2022/09/19 00:46:27;;;;;;;1.20;0.50;;;7.90;99.90;;;;;;5071400;28;20189;-63
2022/09/19 00:49:06;;;;;;;1.10;0.40;;;7.80;99.90;;;;;;5072096;28;20435;-63
2022/09/19 00:51:37;;;;;;;1.33;0.53;;;7.90;99.90;;;;;;5072219;28;20425;-62
2022/09/19 00:54:13;;;;;;;1.10;0.40;;;7.80;99.90;;;;;;5062597;28;20461;-63
2022/09/19 00:56:45;;;;;;;2.03;0.77;;;7.80;99.90;;;;;;5070252;28;20484;-63
2022/09/19 00:59:12;;;;;;;1.83;0.70;;;7.80;99.90;;;;;;5071222;28;20423;-63
2022/09/19 01:01:39;;;;;;;1.20;0.47;;;7.70;99.90;;;;;;5070051;28;20426;-63
2022/09/19 01:04:19;;;;;;;1.10;0.50;;;7.70;99.90;;;;;;5072057;28;20459;-63
2022/09/19 01:07:13;;;;;;;5.63;0.80;;;7.70;99.90;;;;;;5059243;28;20423;-63
2022/09/19 01:10:17;;;;;;;1.10;0.40;;;7.60;99.90;;;;;;5071590;28;20906;-63
2022/09/19 01:13:04;;;;;;;1.10;0.40;;;7.50;99.90;;;;;;5060819;28;20900;-63
2022/09/19 01:15:57;;;;;;;1.20;0.50;;;7.50;99.90;;;;;;5081956;28;20509;-63
2022/09/19 01:18:43;;;;;;;2.90;0.87;;;7.50;99.90;;;;;;5071193;28;20947;-63
2022/09/19 01:21:40;;;;;;;2.90;0.50;;;7.50;99.90;;;;;;5071786;28;20423;-63
2022/09/19 01:24:28;;;;;;;1.10;0.40;;;7.50;99.90;;;;;;5071316;28;20462;-63
2022/09/19 01:27:09;;;;;;;1.20;0.50;;;7.50;99.90;;;;;;5019542;28;20459;-63
2022/09/19 01:29:52;;;;;;;1.50;0.50;;;7.40;99.90;;;;;;5060266;28;20426;-62
2022/09/19 01:32:23;;;;;;;1.23;0.53;;;7.30;99.90;;;;;;5059244;28;20936;-63
2022/09/19 01:34:53;;;;;;;1.60;0.70;;;7.30;99.90;;;;;;5071318;28;20418;-63
2022/09/19 01:37:29;;;;;;;1.23;0.53;;;7.20;99.90;;;;;;5071422;28;20902;-63
2022/09/19 01:39:58;;;;;;;1.10;0.50;;;7.20;99.90;;;;;;5071386;28;20411;-63
2022/09/19 01:42:24;;;;;;;1.10;0.50;;;7.10;99.90;;;;;;5058196;28;20419;-63
2022/09/19 01:44:52;;;;;;;1.30;0.60;;;7.10;99.90;;;;;;5070476;28;20474;-63
2022/09/19 01:47:26;;;;;;;1.10;0.50;;;7.10;99.90;;;;;;5071193;28;20184;-63
2022/09/19 01:50:18;;;;;;;1.10;0.50;;;7.10;99.90;;;;;;5071132;28;20891;-62
2022/09/19 01:52:48;;;;;;;1.40;0.60;;;7.20;99.90;;;;;;5071614;28;20419;-63
2022/09/19 01:55:20;;;;;;;1.20;0.50;;;7.10;99.90;;;;;;5070802;28;20415;-63
2022/09/19 01:58:09;;;;;;;1.10;0.40;;;7.10;99.90;;;;;;5072783;28;20431;-63
2022/09/19 02:00:41;;;;;;;2.33;0.70;;;7.10;99.90;;;;;;5068672;28;20454;-63
2022/09/19 02:03:36;;;;;;;1.40;0.60;;;7.10;99.90;;;;;;5071332;28;20427;-63
2022/09/19 02:06:14;;;;;;;1.20;0.50;;;7.10;99.90;;;;;;5070809;28;20427;-63
2022/09/19 02:09:13;;;;;;;3.40;0.97;;;7.10;99.90;;;;;;5071533;28;20465;-63
2022/09/19 02:11:42;;;;;;;1.30;0.60;;;7.10;99.90;;;;;;5052244;28;20430;-63
2022/09/19 02:14:18;;;;;;;1.30;0.53;;;7.10;99.90;;;;;;5078809;28;20470;-63
2022/09/19 02:16:58;;;;;;;3.07;1.07;;;7.10;99.90;;;;;;5079400;28;20422;-63
2022/09/19 02:19:42;;;;;;;1.20;0.53;;;7.10;99.90;;;;;;5066341;28;20916;-63
2022/09/19 02:22:24;;;;;;;1.20;0.50;;;7.10;99.90;;;;;;5052174;28;20424;-62
2022/09/19 02:24:52;;;;;;;1.77;0.80;;;7.10;99.90;;;;;;5070720;28;20552;-63
2022/09/19 02:27:25;;;;;;;1.20;0.60;;;7.10;99.90;;;;;;5070758;28;20503;-63
2022/09/19 02:30:00;;;;;;;1.20;0.70;;;7.10;99.90;;;;;;5059464;28;20424;-63
2022/09/19 02:32:26;;;;;;;1.93;0.70;;;7.10;99.90;;;;;;5070317;28;20427;-62
2022/09/19 02:34:54;;;;;;;1.20;0.53;;;7.00;99.90;;;;;;5070902;28;20431;-63
2022/09/19 02:37:29;;;;;;;3.73;0.50;;;7.00;99.90;;;;;;5036340;28;20435;-63
2022/09/19 02:40:22;;;;;;;1.20;0.50;;;7.00;99.90;;;;;;5067965;28;20430;-62
2022/09/19 02:43:14;;;;;;;4.20;0.60;;;6.90;99.90;;;;;;5065514;28;20426;-63
2022/09/19 02:45:45;;;;;;;2.23;0.70;;;7.00;99.90;;;;;;5061457;28;20494;-63
2022/09/19 02:48:26;;;;;;;2.10;0.73;;;6.90;99.90;;;;;;5073036;28;20426;-63
2022/09/19 02:51:00;;;;;;;3.73;1.37;;;7.00;99.90;;;;;;5064756;28;20418;-62
2022/09/19 02:53:31;;;;;;;8.00;0.80;;;7.00;99.90;;;;;;5060998;28;20453;-63
2022/09/19 02:56:02;;;;;;;2.47;0.90;;;7.00;99.90;;;;;;5073668;28;20423;-63
2022/09/19 02:58:33;;;;;;;1.20;0.60;;;7.00;99.90;;;;;;5055977;28;20439;-63
2022/09/19 03:01:05;;;;;;;2.20;0.70;;;7.00;99.90;;;;;;5071519;28;20430;-63
2022/09/19 03:06:37;;;;;;;2.13;0.60;;;7.00;99.90;;;;;;5074085;28;20979;-63
2022/09/19 03:09:06;;;;;;;1.40;0.60;;;7.00;99.90;;;;;;5074485;28;20782;-63
2022/09/19 03:11:34;;;;;;;1.10;0.40;;;7.00;99.90;;;;;;5067365;28;20423;-63
2022/09/19 03:14:00;;;;;;;4.10;0.87;;;7.00;99.90;;;;;;5074713;28;20493;-63
2022/09/19 03:16:34;;;;;;;1.77;0.70;;;7.00;99.90;;;;;;5078615;28;20424;-63
2022/09/19 03:19:04;;;;;;;1.70;0.70;;;7.00;99.90;;;;;;5069441;28;20839;-63
2022/09/19 03:21:30;;;;;;;1.20;0.50;;;7.00;99.90;;;;;;5073901;28;20416;-63
2022/09/19 03:23:58;;;;;;;1.40;0.70;;;7.00;99.90;;;;;;5073752;28;20566;-63
2022/09/19 03:26:28;;;;;;;1.10;0.50;;;7.00;99.90;;;;;;5064882;28;20411;-63
2022/09/19 03:28:54;;;;;;;4.30;0.70;;;7.00;99.90;;;;;;5073673;28;20495;-63
2022/09/19 03:31:21;;;;;;;1.77;0.90;;;6.90;99.90;;;;;;5073490;28;20431;-63
2022/09/19 03:33:48;;;;;;;6.63;0.87;;;7.00;99.90;;;;;;5071922;28;20500;-63
2022/09/19 03:36:14;;;;;;;2.80;0.80;;;7.00;99.90;;;;;;5053061;28;20424;-62
2022/09/19 03:38:44;;;;;;;1.20;0.50;;;7.00;99.90;;;;;;5057000;28;20423;-63
2022/09/19 03:41:19;;;;;;;1.70;1.03;;;7.00;99.90;;;;;;5062819;28;20912;-63
2022/09/19 03:43:45;;;;;;;2.63;0.60;;;6.90;99.90;;;;;;5071852;28;20966;-63
2022/09/19 03:46:12;;;;;;;12.63;0.90;;;7.00;99.90;;;;;;5072840;28;20759;-62
2022/09/19 03:48:40;;;;;;;1.50;0.80;;;7.00;99.90;;;;;;5072616;28;20461;-63
2022/09/19 03:51:06;;;;;;;3.63;1.10;;;7.00;99.90;;;;;;5061817;28;20450;-62
2022/09/19 03:53:33;;;;;;;3.27;0.93;;;7.00;99.90;;;;;;5071698;28;20489;-62
2022/09/19 03:55:59;;;;;;;2.03;1.07;;;7.00;99.90;;;;;;5072411;28;20450;-62
2022/09/19 03:58:25;;;;;;;1.50;0.70;;;7.00;99.90;;;;;;5074336;28;20503;-63
2022/09/19 04:00:51;;;;;;;1.20;0.50;;;7.00;99.90;;;;;;5070457;28;20991;-62
2022/09/19 04:03:18;;;;;;;2.33;0.70;;;7.00;99.90;;;;;;5071231;28;20248;-63
2022/09/19 04:05:44;;;;;;;1.50;0.80;;;7.00;99.90;;;;;;5086118;28;20851;-63
2022/09/19 04:08:11;;;;;;;1.87;0.60;;;7.00;99.90;;;;;;5077302;28;21373;-63
2022/09/19 04:10:36;;;;;;;1.50;0.60;;;6.90;99.90;;;;;;5072805;28;20506;-63
2022/09/19 04:13:02;;;;;;;1.87;0.70;;;7.00;99.90;;;;;;5072545;28;20514;-62
2022/09/19 04:15:27;;;;;;;1.57;0.80;;;7.00;99.90;;;;;;5070802;28;20188;-62
2022/09/19 04:17:53;;;;;;;2.27;0.77;;;7.00;99.90;;;;;;5062395;28;20182;-63
2022/09/19 04:20:19;;;;;;;6.73;1.37;;;7.10;99.90;;;;;;5072778;28;20231;-62
2022/09/19 04:22:44;;;;;;;5.43;0.77;;;7.10;99.90;;;;;;5072389;28;20199;-62
2022/09/19 04:25:12;;;;;;;4.60;1.20;;;7.00;99.90;;;;;;5072123;28;20204;-62
2022/09/19 04:27:38;;;;;;;1.77;0.70;;;7.00;99.90;;;;;;5072214;28;20184;-63
2022/09/19 04:30:05;;;;;;;3.10;0.90;;;7.00;99.90;;;;;;5071981;28;20477;-63
2022/09/19 04:32:30;;;;;;;1.67;0.83;;;7.00;99.90;;;;;;5072480;28;20423;-62
2022/09/19 04:34:59;;;;;;;18.67;0.83;;;7.00;99.90;;;;;;5067780;28;20903;-63
2022/09/19 04:37:26;;;;;;;5.50;1.10;;;7.00;99.90;;;;;;5071379;28;20187;-63
2022/09/19 04:39:51;;;;;;;6.60;0.93;;;7.00;99.90;;;;;;5071446;28;20945;-63
2022/09/19 04:42:18;;;;;;;1.40;0.70;;;7.10;99.90;;;;;;5071957;28;20415;-63
2022/09/19 04:44:44;;;;;;;1.30;0.53;;;7.20;99.90;;;;;;5071464;28;20233;-63
2022/09/19 04:47:10;;;;;;;1.77;0.67;;;7.20;99.90;;;;;;5071737;28;20443;-63
2022/09/19 04:49:40;;;;;;;1.30;0.50;;;7.30;99.90;;;;;;5072212;28;20510;-62
2022/09/19 04:52:12;;;;;;;2.90;0.60;;;7.30;99.90;;;;;;5066410;28;20573;-62
2022/09/19 04:54:38;;;;;;;1.30;0.70;;;7.30;99.90;;;;;;5063693;28;20408;-63
2022/09/19 04:57:05;;;;;;;3.93;0.63;;;7.40;99.90;;;;;;5075762;28;20509;-63
2022/09/19 04:59:33;;;;;;;6.50;1.07;;;7.40;99.90;;;;;;5079829;28;20933;-62
2022/09/19 05:02:00;;;;;;;1.40;0.60;;;7.40;99.90;;;;;;5071970;28;20902;-63
2022/09/19 05:04:25;;;;;;;1.50;0.80;;;7.40;99.90;;;;;;5076626;28;20446;-63
2022/09/19 05:06:51;;;;;;;1.30;0.60;;;7.40;99.90;;;;;;5078328;28;20514;-62
2022/09/19 05:09:17;;;;;;;10.23;1.33;;;7.40;99.90;;;;;;5072030;28;20181;-63
2022/09/19 05:11:46;;;;;;;2.60;1.03;;;7.40;99.90;;;;;;5071197;28;20426;-63
2022/09/19 05:14:13;;;;;;;1.47;0.67;;;7.40;99.90;;;;;;5054224;28;20435;-63
2022/09/19 05:16:42;;;;;;;1.73;0.80;;;7.50;99.90;;;;;;5069172;28;20423;-63
2022/09/19 05:19:08;;;;;;;3.57;1.13;;;7.40;99.90;;;;;;5071887;28;20439;-63
2022/09/19 05:21:34;;;;;;;5.00;1.00;;;7.50;99.90;;;;;;5071447;28;20941;-63
2022/09/19 05:24:00;;;;;;;2.30;0.70;;;7.50;99.90;;;;;;5071518;28;20254;-63
2022/09/19 05:26:27;;;;;;;4.40;1.53;;;7.60;99.90;;;;;;5070867;28;20507;-62
2022/09/19 05:28:53;;;;;;;2.73;1.20;;;7.60;99.90;;;;;;5072029;28;20774;-62
2022/09/19 05:31:19;;;;;;;4.20;0.80;;;7.50;99.90;;;;;;5070922;28;20449;-62
2022/09/19 05:33:46;;;;;;;7.60;1.27;;;7.60;99.90;;;;;;5071823;28;20188;-62
2022/09/19 05:36:13;;;;;;;9.83;1.33;;;7.60;99.90;;;;;;5069741;28;20415;-62
2022/09/19 05:38:39;;;;;;;1.90;0.90;;;7.60;99.90;;;;;;5071642;28;20420;-62
2022/09/19 05:41:05;;;;;;;2.93;0.70;;;7.70;99.90;;;;;;5071126;28;20423;-62
2022/09/19 05:43:31;;;;;;;1.63;0.83;;;7.60;99.90;;;;;;5069377;28;20173;-62
2022/09/19 05:45:57;;;;;;;2.03;1.00;;;7.70;99.90;;;;;;5066043;28;20863;-63
2022/09/19 05:48:26;;;;;;;7.90;1.00;;;7.80;99.90;;;;;;5063506;28;20182;-62
2022/09/19 05:50:53;;;;;;;1.30;0.67;;;7.80;99.90;;;;;;5066119;28;20448;-62
2022/09/19 05:56:06;;;;;;;7.07;1.10;;;7.90;99.90;;;;;;5069292;28;20453;-63
2022/09/19 05:58:35;;;;;;;2.73;1.17;;;7.90;99.90;;;;;;5072025;28;20417;-62
2022/09/19 06:01:06;;;;;;;2.53;0.83;;;7.90;99.90;;;;;;5069761;28;20465;-63
2022/09/19 06:03:33;;;;;;;3.20;1.00;;;8.00;99.90;;;;;;5069251;28;20785;-63
2022/09/19 06:05:59;;;;;;;1.97;0.70;;;8.00;99.90;;;;;;5052298;28;20467;-62
2022/09/19 06:08:24;;;;;;;4.80;0.97;;;8.00;99.90;;;;;;5068358;28;20422;-62
2022/09/19 06:10:51;;;;;;;4.70;1.63;;;8.00;99.90;;;;;;5064071;28;20273;-62
2022/09/19 06:13:19;;;;;;;3.53;0.97;;;8.10;99.90;;;;;;5074809;28;20625;-62
2022/09/19 06:15:45;;;;;;;5.50;0.73;;;8.10;99.90;;;;;;5073044;28;20817;-62
2022/09/19 06:18:11;;;;;;;3.10;1.37;;;8.10;99.90;;;;;;5063067;28;20903;-64
2022/09/19 06:20:41;;;;;;;3.10;1.30;;;8.20;99.90;;;;;;5075055;28;20800;-61
2022/09/19 06:23:09;;;;;;;1.50;0.60;;;8.30;99.90;;;;;;5074997;28;20431;-62
2022/09/19 06:25:36;;;;;;;3.40;1.13;;;8.30;99.90;;;;;;5074069;28;20463;-63
2022/09/19 06:28:05;;;;;;;10.13;2.60;;;8.40;99.90;;;;;;5073339;28;21012;-63
2022/09/19 06:30:31;;;;;;;4.40;0.90;;;8.50;99.90;;;;;;5069912;28;21079;-64
2022/09/19 06:32:57;;;;;;;3.87;1.03;;;8.50;99.90;;;;;;5044138;28;20426;-64
2022/09/19 06:35:26;;;;;;;8.73;1.60;;;8.50;99.90;;;;;;5074290;28;20430;-64
2022/09/19 06:38:00;;;;;;;2.30;1.00;;;8.50;99.90;;;;;;5074836;28;20193;-64
2022/09/19 06:40:27;;;;;;;1.70;0.80;;;8.50;99.90;;;;;;5056373;28;20466;-64
2022/09/19 06:43:01;;;;;;;7.50;1.43;;;8.60;99.90;;;;;;5074465;28;20435;-63
2022/09/19 06:45:27;;;;;;;2.83;0.90;;;8.70;99.90;;;;;;5069490;28;20641;-63
2022/09/19 06:47:59;;;;;;;3.97;0.87;;;8.70;99.90;;;;;;5074690;28;20422;-61
2022/09/19 06:50:26;;;;;;;6.20;0.97;;;8.80;99.90;;;;;;5074522;28;20423;-61
2022/09/19 06:52:52;;;;;;;1.50;0.70;;;8.70;99.90;;;;;;5071431;28;20961;-62
2022/09/19 06:55:18;;;;;;;3.57;1.00;;;8.70;99.90;;;;;;5065871;28;20511;-62
2022/09/19 06:57:51;;;;;;;4.03;1.40;;;8.70;99.90;;;;;;5081819;28;20208;-63
2022/09/19 07:00:17;;;;;;;3.03;1.10;;;8.70;99.90;;;;;;5060469;28;20562;-63
2022/09/19 07:02:42;;;;;;;2.70;1.20;;;8.60;99.90;;;;;;5067695;28;20467;-63
2022/09/19 07:05:09;;;;;;;10.53;2.40;;;8.60;99.90;;;;;;5067323;28;20205;-63
2022/09/19 07:07:34;;;;;;;14.07;3.30;;;8.70;99.90;;;;;;5074275;28;20623;-63
2022/09/19 07:10:00;;;;;;;10.00;1.60;;;8.70;99.90;;;;;;5060875;28;20499;-63
2022/09/19 07:12:25;;;;;;;2.07;1.10;;;8.90;99.90;;;;;;5060180;28;20243;-63
2022/09/19 07:14:51;;;;;;;4.17;1.20;;;8.90;99.90;;;;;;5073475;28;20206;-63
2022/09/19 07:17:17;;;;;;;8.93;1.83;;;9.00;99.90;;;;;;5059846;28;20185;-63
2022/09/19 07:19:44;;;;;;;4.40;1.37;;;9.00;99.90;;;;;;5074181;28;20865;-63
2022/09/19 07:22:10;;;;;;;9.00;1.70;;;9.10;99.90;;;;;;5073134;28;20231;-63
2022/09/19 07:24:35;;;;;;;5.03;1.20;;;9.30;99.90;;;;;;5073235;28;20463;-63
2022/09/19 07:27:01;;;;;;;7.40;1.60;;;9.40;99.90;;;;;;5072988;28;20196;-63
2022/09/19 07:29:27;;;;;;;4.00;1.27;;;9.50;99.90;;;;;;5073927;28;20569;-63
2022/09/19 07:31:52;;;;;;;5.23;1.63;;;9.60;99.90;;;;;;5073042;28;20648;-63
2022/09/19 07:34:18;;;;;;;8.63;1.43;;;9.70;99.90;;;;;;5055577;28;20189;-63
2022/09/19 07:36:43;;;;;;;2.90;1.50;;;9.70;99.90;;;;;;5068826;28;20235;-63
2022/09/19 07:39:09;;;;;;;3.40;0.70;;;9.90;99.90;;;;;;5065994;28;20843;-63
2022/09/19 07:41:35;;;;;;;6.47;1.60;;;10.00;99.90;;;;;;5073089;28;20268;-63
2022/09/19 07:44:00;;;;;;;6.97;1.33;;;10.00;99.90;;;;;;5055501;28;20465;-63
2022/09/19 07:46:26;;;;;;;5.37;1.07;;;10.10;99.90;;;;;;5061354;28;20181;-63
2022/09/19 07:48:53;;;;;;;3.83;1.73;;;10.10;99.90;;;;;;5073375;28;20177;-63
2022/09/19 07:51:20;;;;;;;5.00;1.60;;;10.50;99.90;;;;;;5051954;28;20192;-63
2022/09/19 07:53:46;;;;;;;2.93;1.10;;;11.20;99.90;;;;;;5081692;28;20411;-63
2022/09/19 07:56:11;;;;;;;5.60;1.50;;;11.60;99.90;;;;;;5061151;28;20949;-63
2022/09/19 07:58:37;;;;;;;2.30;0.97;;;11.60;99.90;;;;;;5080234;28;20185;-63
2022/09/19 08:01:03;;;;;;;3.87;1.23;;;11.50;99.90;;;;;;5066447;28;20243;-63
2022/09/19 08:03:28;;;;;;;7.37;1.03;;;11.40;99.90;;;;;;5065815;28;20192;-63
2022/09/19 08:05:54;;;;;;;19.73;1.37;;;11.30;99.90;;;;;;5058982;28;20217;-63
2022/09/19 08:08:22;;;;;;;1.83;0.87;;;11.00;99.90;;;;;;5060826;28;20194;-63
2022/09/19 08:10:48;;;;;;;4.17;0.90;;;11.00;99.90;;;;;;5059114;28;20264;-63
2022/09/19 08:13:17;;;;;;;4.20;1.50;;;10.80;99.90;;;;;;5069240;28;20971;-63
2022/09/19 08:15:44;;;;;;;6.40;1.33;;;10.80;99.90;;;;;;5070835;28;20193;-63
2022/09/19 08:18:13;;;;;;;4.87;1.00;;;10.70;99.90;;;;;;5072917;28;20443;-63
2022/09/19 08:20:40;;;;;;;1.77;0.90;;;10.90;99.90;;;;;;5059988;28;21015;-63
2022/09/19 08:23:09;;;;;;;2.60;1.13;;;10.80;99.90;;;;;;5059672;28;20427;-63
2022/09/19 08:25:37;;;;;;;8.73;1.17;;;10.90;99.90;;;;;;5046833;28;20463;-63
2022/09/19 08:28:03;;;;;;;1.83;0.90;;;11.10;99.90;;;;;;5066570;28;20899;-63
2022/09/19 08:30:30;;;;;;;1.73;0.80;;;11.20;99.90;;;;;;5070590;28;20442;-63
2022/09/19 08:32:56;;;;;;;7.90;1.13;;;11.10;99.90;;;;;;5066830;28;20270;-63
2022/09/19 08:35:23;;;;;;;6.10;1.10;;;11.00;99.90;;;;;;5064335;28;20420;-63
2022/09/19 08:38:02;;;;;;;2.50;1.40;;;10.90;99.90;;;;;;5059612;28;20844;-63
2022/09/19 08:40:30;;;;;;;21.50;1.47;;;10.80;99.90;;;;;;5062895;28;20904;-63
2022/09/19 08:43:11;;;;;;;3.77;1.30;;;10.90;99.90;;;;;;5068295;28;20427;-63
2022/09/19 08:46:14;;;;;;;4.50;0.83;;;10.90;99.90;;;;;;5062409;28;20516;-63
2022/09/19 08:48:57;;;;;;;3.70;1.73;;;10.80;99.90;;;;;;5062202;28;20414;-63
2022/09/19 08:51:32;;;;;;;4.70;0.70;;;10.80;99.90;;;;;;5065051;28;20428;-63
2022/09/19 08:54:05;;;;;;;6.17;1.40;;;10.80;99.90;;;;;;5075663;28;20490;-63
2022/09/19 08:56:31;;;;;;;3.60;1.40;;;11.10;99.90;;;;;;5071329;28;20415;-63
2022/09/19 08:59:03;;;;;;;10.13;3.27;;;11.20;99.90;;;;;;5054757;28;21095;-63
2022/09/19 09:01:36;;;;;;;7.83;1.33;;;11.20;99.90;;;;;;5061834;28;20537;-63
2022/09/19 09:04:31;;;;;;;8.00;1.47;;;11.30;99.90;;;;;;5069380;28;20418;-63
2022/09/19 09:07:24;;;;;;;7.43;2.27;;;11.20;99.90;;;;;;5070558;28;20404;-64
2022/09/19 09:10:01;;;;;;;2.40;1.03;;;11.20;99.90;;;;;;5063439;28;20420;-63
2022/09/19 09:12:40;;;;;;;2.27;1.13;;;11.30;99.90;;;;;;5064798;28;20420;-63
2022/09/19 09:15:36;;;;;;;2.70;0.83;;;11.20;99.90;;;;;;5051875;28;20439;-63
2022/09/19 09:18:17;;;;;;;2.80;1.10;;;11.10;99.90;;;;;;5071637;28;20443;-63
2022/09/19 09:20:54;;;;;;;2.70;1.17;;;11.10;99.90;;;;;;5059466;28;20419;-64
2022/09/19 09:23:31;;;;;;;2.70;0.87;;;11.10;99.90;;;;;;5071606;28;20481;-63
2022/09/19 09:26:19;;;;;;;6.40;2.10;;;11.10;99.90;;;;;;5071188;28;20519;-63
2022/09/19 09:29:00;;;;;;;4.60;1.33;;;11.10;99.90;;;;;;5057859;28;20442;-62
2022/09/19 09:31:31;;;;;;;4.33;1.83;;;11.20;99.90;;;;;;5071234;28;20412;-62
2022/09/19 09:34:02;;;;;;;8.07;3.63;;;11.20;99.90;;;;;;5062224;28;20958;-64
2022/09/19 09:36:47;;;;;;;5.87;1.87;;;11.30;99.90;;;;;;5067889;28;20790;-64
2022/09/19 09:39:19;;;;;;;6.30;1.87;;;11.30;99.90;;;;;;5071654;28;20961;-63
2022/09/19 09:41:54;;;;;;;2.10;1.10;;;11.20;99.90;;;;;;5064489;28;20415;-63
2022/09/19 09:44:30;;;;;;;3.30;1.00;;;11.30;99.90;;;;;;5066032;28;20450;-63
2022/09/19 09:47:30;;;;;;;4.80;1.43;;;11.20;99.90;;;;;;5072885;28;20769;-63
2022/09/19 09:50:13;;;;;;;5.73;2.10;;;11.30;99.90;;;;;;5057638;28;20439;-63
2022/09/19 09:53:00;;;;;;;6.43;1.60;;;11.40;99.90;;;;;;5076787;28;20411;-63
2022/09/19 09:58:57;;;;;;;2.13;1.00;;;11.50;99.90;;;;;;5067711;28;20406;-63
2022/09/19 10:04:38;;;;;;;5.70;1.17;;;11.60;99.90;;;;;;5075429;28;20492;-63
2022/09/19 10:07:23;;;;;;;10.10;1.23;;;11.70;99.90;;;;;;5074886;28;20742;-63
2022/09/19 10:09:59;;;;;;;4.43;0.87;;;11.80;99.90;;;;;;5075277;28;20449;-63
2022/09/19 10:12:32;;;;;;;8.47;2.20;;;11.90;99.90;;;;;;5074984;28;20410;-63
2022/09/19 10:15:02;;;;;;;3.97;1.70;;;11.90;99.90;;;;;;5074010;28;20466;-63
2022/09/19 10:17:33;;;;;;;3.70;1.90;;;11.90;99.90;;;;;;5073682;28;20427;-63
2022/09/19 10:20:08;;;;;;;17.23;3.40;;;11.90;99.90;;;;;;5074957;28;20435;-63
2022/09/19 10:22:33;;;;;;;3.77;2.37;;;11.90;99.90;;;;;;5075166;28;20847;-63
2022/09/19 10:25:08;;;;;;;4.07;1.10;;;12.00;99.90;;;;;;5074238;28;20618;-64
2022/09/19 10:27:35;;;;;;;1.50;0.60;;;12.10;99.90;;;;;;5074673;28;20173;-63
2022/09/19 10:30:06;;;;;;;2.80;1.63;;;12.20;99.90;;;;;;5074116;28;20419;-63
2022/09/19 10:32:36;;;;;;;8.67;1.20;;;12.20;99.90;;;;;;5074499;28;20418;-62
2022/09/19 10:35:25;;;;;;;4.23;1.20;;;12.20;99.90;;;;;;5074445;28;20779;-62
2022/09/19 10:38:14;;;;;;;7.23;2.57;;;12.10;99.90;;;;;;5060293;28;20473;-62
2022/09/19 10:40:58;;;;;;;5.90;2.43;;;12.00;99.90;;;;;;5074781;28;20419;-62
2022/09/19 10:43:30;;;;;;;3.80;1.30;;;12.00;99.90;;;;;;5065810;28;20549;-62
2022/09/19 10:45:57;;;;;;;2.67;1.30;;;11.90;99.90;;;;;;5063770;28;20982;-62
2022/09/19 10:48:30;;;;;;;6.70;1.37;;;11.90;99.90;;;;;;5068914;28;20454;-62
2022/09/19 10:50:58;;;;;;;4.87;1.47;;;12.00;99.90;;;;;;5081384;28;20462;-62
2022/09/19 10:53:30;;;;;;;4.00;1.00;;;11.80;99.90;;;;;;5073125;28;20416;-62
2022/09/19 10:56:04;;;;;;;3.23;1.30;;;11.70;99.90;;;;;;5065534;28;20884;-62
2022/09/19 10:58:35;;;;;;;3.87;1.13;;;11.70;99.90;;;;;;5067629;28;20498;-62
2022/09/19 11:01:03;;;;;;;2.80;1.23;;;11.60;99.90;;;;;;5070593;28;20424;-62
2022/09/19 11:03:30;;;;;;;22.77;5.47;;;11.60;99.90;;;;;;5071039;28;20509;-63
2022/09/19 11:06:16;;;;;;;6.17;2.60;;;11.70;99.90;;;;;;5059255;28;20464;-63
2022/09/19 11:08:44;;;;;;;11.77;4.03;;;11.80;99.90;;;;;;5054463;28;20424;-62
2022/09/19 11:11:46;;;;;;;3.30;1.33;;;11.90;99.90;;;;;;5073721;28;20809;-62
2022/09/19 11:14:11;;;;;;;2.17;0.93;;;12.10;99.90;;;;;;5060123;28;20429;-63
2022/09/19 11:17:01;;;;;;;2.47;1.13;;;12.30;99.90;;;;;;5060735;28;20435;-62
2022/09/19 11:19:39;;;;;;;5.83;3.23;;;12.50;99.90;;;;;;5063150;28;20207;-63
2022/09/19 11:22:23;;;;;;;8.23;3.20;;;12.70;99.90;;;;;;5056908;28;20411;-62
2022/09/19 11:25:06;;;;;;;5.30;2.50;;;13.10;99.90;;;;;;5073926;28;20466;-63
2022/09/19 11:27:54;;;;;;;5.53;2.33;;;13.30;99.90;;;;;;5073800;28;20407;-63
2022/09/19 11:30:32;;;;;;;3.33;2.40;;;13.40;99.90;;;;;;5055852;28;20428;-63
2022/09/19 11:33:04;;;;;;;10.70;8.93;;;13.30;99.90;;;;;;5066059;28;20443;-63
2022/09/19 11:35:35;;;;;;;2.03;1.37;;;13.30;99.90;;;;;;5073153;28;20900;-64
2022/09/19 11:38:15;;;;;;;5.10;1.53;;;13.30;99.90;;;;;;5073926;28;20415;-64
2022/09/19 11:41:14;;;;;;;3.73;0.80;;;13.10;99.90;;;;;;5064778;28;20450;-64
2022/09/19 11:44:09;;;;;;;1.60;0.90;;;13.10;99.90;;;;;;5059368;28;20460;-64
2022/09/19 11:46:40;;;;;;;2.23;1.47;;;13.00;99.90;;;;;;5070213;28;20424;-64
2022/09/19 11:49:27;;;;;;;3.73;1.60;;;13.10;99.90;;;;;;5073291;28;20426;-64
2022/09/19 11:51:54;;;;;;;1.53;0.90;;;13.10;99.90;;;;;;5058144;28;20443;-61
2022/09/19 11:54:34;;;;;;;1.90;1.10;;;13.30;99.90;;;;;;5067973;28;20419;-63
2022/09/19 11:57:02;;;;;;;1.60;0.80;;;13.30;99.90;;;;;;5079598;28;20422;-63
2022/09/19 11:59:43;;;;;;;3.33;1.53;;;13.10;99.90;;;;;;5075461;28;20439;-63
2022/09/19 12:02:27;;;;;;;3.93;1.77;;;13.00;99.90;;;;;;5060268;28;20408;-63
2022/09/19 12:05:15;;;;;;;1.97;0.67;;;12.80;99.90;;;;;;5054985;28;20510;-63
2022/09/19 12:07:47;;;;;;;3.40;1.57;;;12.60;99.90;;;;;;5070872;28;20434;-63
2022/09/19 12:10:32;;;;;;;3.57;1.03;;;12.50;99.90;;;;;;5072423;28;20414;-64
2022/09/19 12:13:03;;;;;;;4.33;0.90;;;12.40;99.90;;;;;;5060426;28;20423;-63
2022/09/19 12:15:32;;;;;;;4.73;0.90;;;12.50;99.90;;;;;;5070617;28;20951;-63
2022/09/19 12:18:01;;;;;;;4.03;1.37;;;12.80;99.90;;;;;;5065260;28;21012;-63
2022/09/19 12:20:34;;;;;;;3.10;1.20;;;13.00;99.90;;;;;;5072738;28;20840;-63
2022/09/19 12:26:09;;;;;;;2.00;1.10;;;13.10;99.90;;;;;;5060551;28;20458;-63
2022/09/19 12:28:42;;;;;;;2.90;0.80;;;13.30;99.90;;;;;;5071841;28;20427;-63
2022/09/19 12:31:11;;;;;;;2.23;0.90;;;13.70;99.90;;;;;;5054032;28;20438;-63
2022/09/19 12:33:48;;;;;;;3.27;0.90;;;13.70;99.90;;;;;;5072203;28;20502;-63
2022/09/19 12:36:29;;;;;;;8.30;0.97;;;13.70;99.90;;;;;;5071400;28;20949;-63
2022/09/19 12:39:14;;;;;;;2.00;0.90;;;13.50;99.90;;;;;;5058740;28;20426;-63
2022/09/19 12:41:54;;;;;;;3.10;0.93;;;13.20;99.90;;;;;;5052422;28;20538;-63
2022/09/19 12:44:34;;;;;;;1.33;0.60;;;12.90;99.90;;;;;;5051903;28;20452;-63
2022/09/19 12:47:15;;;;;;;5.43;0.80;;;12.60;99.90;;;;;;5063466;28;20469;-63
2022/09/19 12:50:07;;;;;;;1.80;0.83;;;13.00;99.90;;;;;;5061677;28;20963;-63
2022/09/19 12:52:46;;;;;;;2.70;0.80;;;13.50;99.90;;;;;;5072944;28;20412;-63
2022/09/19 12:55:26;;;;;;;3.10;0.83;;;14.10;99.90;;;;;;5066355;28;20438;-63
2022/09/19 12:57:51;;;;;;;1.60;0.60;;;14.10;99.90;;;;;;5084024;28;20427;-63
2022/09/19 13:00:18;;;;;;;1.40;0.50;;;14.10;99.90;;;;;;5071640;28;20419;-63
2022/09/19 13:02:51;;;;;;;2.00;0.80;;;13.90;99.90;;;;;;5072063;28;20212;-63
2022/09/19 13:05:52;;;;;;;1.30;0.63;;;13.70;99.90;;;;;;5070856;28;20481;-63
2022/09/19 13:08:29;;;;;;;3.43;0.73;;;13.70;99.90;;;;;;5035232;28;20803;-63
2022/09/19 13:11:08;;;;;;;3.30;0.80;;;13.70;99.90;;;;;;5071848;28;20407;-63
2022/09/19 13:14:01;;;;;;;2.40;0.70;;;13.70;99.90;;;;;;5070911;28;20408;-63
2022/09/19 13:23:29;;;;;;;2.37;0.87;;;13.50;99.90;;;;;;5059054;28;20423;-63
2022/09/19 13:24:44;;;;;;;2.40;1.00;;;13.40;99.90;;;;;;5071774;28;20463;-61
2022/09/19 13:27:11;;;;;;;2.97;1.27;;;13.40;99.90;;;;;;5071514;28;20812;-61
2022/09/19 13:29:39;;;;;;;1.90;0.80;;;13.50;99.90;;;;;;5061488;28;20462;-61
2022/09/19 13:32:44;;;;;;;1.80;0.70;;;13.50;99.90;;;;;;5058317;28;20428;-61
2022/09/19 13:35:19;;;;;;;3.77;1.00;;;13.70;99.90;;;;;;5066349;28;20430;-62
2022/09/19 13:37:52;;;;;;;1.97;0.70;;;13.50;99.90;;;;;;5053068;28;20434;-62
2022/09/19 13:40:27;;;;;;;1.87;0.80;;;13.50;99.90;;;;;;5069144;28;20867;-62
2022/09/19 13:43:22;;;;;;;1.67;0.57;;;13.70;99.90;;;;;;5067486;28;20471;-62
2022/09/19 13:46:06;;;;;;;2.50;0.87;;;14.00;99.90;;;;;;5067502;28;20512;-63